Terminal Aerodrome Forecast
Issued by NWS

Home | Current Version | Previous Version | Text Only | Print | Product List | Glossary On
Versions: 1 2 3 4 5 6 7 8 9 10 11 12 13 14 15 16 17 18 19 20 21 22 23 24 25 26 27 28 29 30 31 32 33 34 35 36 37
000
FTUS45 KRIW 251100
TAFPNA
TAF
KPNA 251121Z 2512/2612 VRB05KT P6SM VCFG SCT010 SCT030
      TEMPO 2512/2514 1 1/2SM BR
     FM251600 30007KT P6SM FEW025 BKN200
     FM252100 VRB06KT P6SM VCSH BKN070
     FM260400 12007KT P6SM -RA BKN030
     FM260900 VRB05KT 3SM -RASN BKN015
      AMD LTD TO CLD VIS AND WIND=

USA.gov is the U.S. government's official web portal to all federal, state and local government web resources and services.